sensor_id;sensor_type;location;lat;lon;timestamp;P1;durP1;ratioP1;P2;durP2;ratioP2
49396;SDS011;35615;41.410;2.194;2023-08-21T00:00:20;17.35;;;7.50;;
49396;SDS011;35615;41.410;2.194;2023-08-21T00:02:47;13.55;;;8.20;;
49396;SDS011;35615;41.410;2.194;2023-08-21T00:05:14;14.50;;;7.88;;
49396;SDS011;35615;41.410;2.194;2023-08-21T00:07:42;17.45;;;8.00;;
49396;SDS011;35615;41.410;2.194;2023-08-21T00:10:10;15.15;;;8.15;;
49396;SDS011;35615;41.410;2.194;2023-08-21T00:12:39;12.13;;;7.28;;
49396;SDS011;35615;41.410;2.194;2023-08-21T00:15:06;15.43;;;8.50;;
49396;SDS011;35615;41.410;2.194;2023-08-21T00:17:36;15.98;;;7.72;;
49396;SDS011;35615;41.410;2.194;2023-08-21T00:20:04;16.13;;;7.82;;
49396;SDS011;35615;41.410;2.194;2023-08-21T00:22:32;12.45;;;7.75;;
49396;SDS011;35615;41.410;2.194;2023-08-21T00:24:59;19.83;;;7.35;;
49396;SDS011;35615;41.410;2.194;2023-08-21T00:27:26;26.60;;;7.32;;
49396;SDS011;35615;41.410;2.194;2023-08-21T00:29:53;17.35;;;7.65;;
49396;SDS011;35615;41.410;2.194;2023-08-21T00:32:21;14.85;;;7.60;;
49396;SDS011;35615;41.410;2.194;2023-08-21T00:34:48;17.13;;;7.55;;
49396;SDS011;35615;41.410;2.194;2023-08-21T00:37:15;16.13;;;7.18;;
49396;SDS011;35615;41.410;2.194;2023-08-21T00:39:42;11.88;;;7.95;;
49396;SDS011;35615;41.410;2.194;2023-08-21T00:42:09;21.00;;;8.95;;
49396;SDS011;35615;41.410;2.194;2023-08-21T00:44:37;15.18;;;8.10;;
49396;SDS011;35615;41.410;2.194;2023-08-21T00:47:04;15.30;;;8.00;;
49396;SDS011;35615;41.410;2.194;2023-08-21T00:49:31;17.00;;;8.55;;
49396;SDS011;35615;41.410;2.194;2023-08-21T00:51:59;16.15;;;7.68;;
49396;SDS011;35615;41.410;2.194;2023-08-21T00:54:30;15.68;;;7.65;;
49396;SDS011;35615;41.410;2.194;2023-08-21T00:56:57;14.52;;;7.53;;
49396;SDS011;35615;41.410;2.194;2023-08-21T00:59:25;16.75;;;7.90;;
49396;SDS011;35615;41.410;2.194;2023-08-21T01:01:52;17.10;;;7.25;;
49396;SDS011;35615;41.410;2.194;2023-08-21T01:04:19;22.92;;;7.88;;
49396;SDS011;35615;41.410;2.194;2023-08-21T01:06:47;17.70;;;7.43;;
49396;SDS011;35615;41.410;2.194;2023-08-21T01:12:16;13.50;;;7.60;;
49396;SDS011;35615;41.410;2.194;2023-08-21T01:15:08;14.77;;;7.60;;
49396;SDS011;35615;41.410;2.194;2023-08-21T01:17:38;14.45;;;7.68;;
49396;SDS011;35615;41.410;2.194;2023-08-21T01:20:07;23.48;;;6.93;;
49396;SDS011;35615;41.410;2.194;2023-08-21T01:22:38;13.52;;;6.78;;
49396;SDS011;35615;41.410;2.194;2023-08-21T01:25:07;17.25;;;7.15;;
49396;SDS011;35615;41.410;2.194;2023-08-21T01:27:36;10.05;;;6.75;;
49396;SDS011;35615;41.410;2.194;2023-08-21T01:30:03;16.63;;;6.57;;
49396;SDS011;35615;41.410;2.194;2023-08-21T01:35:12;15.13;;;7.43;;
49396;SDS011;35615;41.410;2.194;2023-08-21T01:37:42;15.25;;;7.25;;
49396;SDS011;35615;41.410;2.194;2023-08-21T01:40:10;22.13;;;7.10;;
49396;SDS011;35615;41.410;2.194;2023-08-21T01:42:37;19.17;;;6.72;;
49396;SDS011;35615;41.410;2.194;2023-08-21T01:45:05;10.07;;;6.53;;
49396;SDS011;35615;41.410;2.194;2023-08-21T01:47:33;16.55;;;6.80;;
49396;SDS011;35615;41.410;2.194;2023-08-21T01:50:00;13.80;;;6.80;;
49396;SDS011;35615;41.410;2.194;2023-08-21T01:52:27;18.00;;;7.00;;
49396;SDS011;35615;41.410;2.194;2023-08-21T01:54:54;13.07;;;6.97;;
49396;SDS011;35615;41.410;2.194;2023-08-21T01:57:22;13.95;;;7.43;;
49396;SDS011;35615;41.410;2.194;2023-08-21T01:59:49;14.90;;;7.03;;
49396;SDS011;35615;41.410;2.194;2023-08-21T02:02:17;10.75;;;6.05;;
49396;SDS011;35615;41.410;2.194;2023-08-21T02:04:45;16.38;;;5.90;;
49396;SDS011;35615;41.410;2.194;2023-08-21T02:07:16;12.35;;;8.00;;
49396;SDS011;35615;41.410;2.194;2023-08-21T02:09:43;11.05;;;6.75;;
49396;SDS011;35615;41.410;2.194;2023-08-21T02:12:12;12.90;;;6.85;;
49396;SDS011;35615;41.410;2.194;2023-08-21T02:14:40;17.85;;;7.32;;
49396;SDS011;35615;41.410;2.194;2023-08-21T02:17:08;13.13;;;6.70;;
49396;SDS011;35615;41.410;2.194;2023-08-21T02:19:36;14.80;;;6.97;;
49396;SDS011;35615;41.410;2.194;2023-08-21T02:22:05;13.32;;;7.35;;
49396;SDS011;35615;41.410;2.194;2023-08-21T02:24:36;14.27;;;6.28;;
49396;SDS011;35615;41.410;2.194;2023-08-21T02:27:05;16.55;;;7.10;;
49396;SDS011;35615;41.410;2.194;2023-08-21T02:29:32;14.90;;;6.97;;
49396;SDS011;35615;41.410;2.194;2023-08-21T02:32:02;19.02;;;7.72;;
49396;SDS011;35615;41.410;2.194;2023-08-21T02:34:30;17.10;;;7.20;;
49396;SDS011;35615;41.410;2.194;2023-08-21T02:36:59;15.85;;;7.03;;
49396;SDS011;35615;41.410;2.194;2023-08-21T02:39:27;18.23;;;6.72;;
49396;SDS011;35615;41.410;2.194;2023-08-21T02:41:56;17.85;;;6.93;;
49396;SDS011;35615;41.410;2.194;2023-08-21T02:44:23;15.50;;;7.63;;
49396;SDS011;35615;41.410;2.194;2023-08-21T02:46:51;13.75;;;6.68;;
49396;SDS011;35615;41.410;2.194;2023-08-21T02:49:23;10.45;;;5.80;;
49396;SDS011;35615;41.410;2.194;2023-08-21T02:51:50;15.15;;;6.90;;
49396;SDS011;35615;41.410;2.194;2023-08-21T02:54:18;28.42;;;8.40;;
49396;SDS011;35615;41.410;2.194;2023-08-21T02:56:46;17.35;;;7.82;;
49396;SDS011;35615;41.410;2.194;2023-08-21T02:59:14;17.30;;;7.57;;
49396;SDS011;35615;41.410;2.194;2023-08-21T03:01:45;12.95;;;7.60;;
49396;SDS011;35615;41.410;2.194;2023-08-21T03:04:12;13.68;;;7.22;;
49396;SDS011;35615;41.410;2.194;2023-08-21T03:06:39;13.25;;;7.28;;
49396;SDS011;35615;41.410;2.194;2023-08-21T03:09:06;11.55;;;7.18;;
49396;SDS011;35615;41.410;2.194;2023-08-21T03:11:33;13.55;;;7.80;;
49396;SDS011;35615;41.410;2.194;2023-08-21T03:14:01;23.75;;;7.70;;
49396;SDS011;35615;41.410;2.194;2023-08-21T03:16:28;16.95;;;7.40;;
49396;SDS011;35615;41.410;2.194;2023-08-21T03:18:58;17.75;;;7.35;;
49396;SDS011;35615;41.410;2.194;2023-08-21T03:21:29;15.80;;;7.53;;
49396;SDS011;35615;41.410;2.194;2023-08-21T03:23:58;14.43;;;6.57;;
49396;SDS011;35615;41.410;2.194;2023-08-21T03:26:30;15.23;;;6.53;;
49396;SDS011;35615;41.410;2.194;2023-08-21T03:28:57;15.18;;;7.28;;
49396;SDS011;35615;41.410;2.194;2023-08-21T03:31:25;16.88;;;7.60;;
49396;SDS011;35615;41.410;2.194;2023-08-21T03:33:53;25.52;;;8.07;;
49396;SDS011;35615;41.410;2.194;2023-08-21T03:36:22;22.30;;;7.93;;
49396;SDS011;35615;41.410;2.194;2023-08-21T03:39:00;12.52;;;6.97;;
49396;SDS011;35615;41.410;2.194;2023-08-21T03:41:30;15.65;;;7.72;;
49396;SDS011;35615;41.410;2.194;2023-08-21T03:43:59;17.13;;;8.05;;
49396;SDS011;35615;41.410;2.194;2023-08-21T03:46:26;11.73;;;7.53;;
49396;SDS011;35615;41.410;2.194;2023-08-21T03:48:54;15.82;;;7.65;;
49396;SDS011;35615;41.410;2.194;2023-08-21T03:51:21;18.42;;;7.88;;
49396;SDS011;35615;41.410;2.194;2023-08-21T03:53:49;17.10;;;8.10;;
49396;SDS011;35615;41.410;2.194;2023-08-21T03:56:17;14.02;;;7.00;;
49396;SDS011;35615;41.410;2.194;2023-08-21T03:58:45;23.88;;;8.43;;
49396;SDS011;35615;41.410;2.194;2023-08-21T04:01:12;16.25;;;7.93;;
49396;SDS011;35615;41.410;2.194;2023-08-21T04:03:41;13.63;;;7.15;;
49396;SDS011;35615;41.410;2.194;2023-08-21T04:06:09;14.63;;;7.43;;
49396;SDS011;35615;41.410;2.194;2023-08-21T04:08:37;18.35;;;7.72;;
49396;SDS011;35615;41.410;2.194;2023-08-21T04:11:05;13.13;;;7.03;;
49396;SDS011;35615;41.410;2.194;2023-08-21T04:13:33;18.23;;;7.72;;
49396;SDS011;35615;41.410;2.194;2023-08-21T04:16:00;13.38;;;7.90;;
49396;SDS011;35615;41.410;2.194;2023-08-21T04:18:27;14.55;;;8.20;;
49396;SDS011;35615;41.410;2.194;2023-08-21T04:21:07;20.83;;;7.63;;
49396;SDS011;35615;41.410;2.194;2023-08-21T04:23:34;13.93;;;7.32;;
49396;SDS011;35615;41.410;2.194;2023-08-21T04:26:03;14.07;;;7.53;;
49396;SDS011;35615;41.410;2.194;2023-08-21T04:28:31;14.48;;;7.07;;
49396;SDS011;35615;41.410;2.194;2023-08-21T04:30:59;29.38;;;8.27;;
49396;SDS011;35615;41.410;2.194;2023-08-21T04:33:28;14.32;;;7.38;;
49396;SDS011;35615;41.410;2.194;2023-08-21T04:35:56;20.77;;;8.50;;
49396;SDS011;35615;41.410;2.194;2023-08-21T04:38:23;18.65;;;8.52;;
49396;SDS011;35615;41.410;2.194;2023-08-21T04:40:51;17.65;;;9.52;;
49396;SDS011;35615;41.410;2.194;2023-08-21T04:43:18;12.55;;;7.80;;
49396;SDS011;35615;41.410;2.194;2023-08-21T04:45:48;18.90;;;8.35;;
49396;SDS011;35615;41.410;2.194;2023-08-21T04:48:17;16.15;;;8.02;;
49396;SDS011;35615;41.410;2.194;2023-08-21T04:50:47;14.60;;;7.50;;
49396;SDS011;35615;41.410;2.194;2023-08-21T04:53:15;15.82;;;8.10;;
49396;SDS011;35615;41.410;2.194;2023-08-21T04:55:42;17.98;;;8.32;;
49396;SDS011;35615;41.410;2.194;2023-08-21T04:58:09;18.17;;;8.02;;
49396;SDS011;35615;41.410;2.194;2023-08-21T05:00:37;19.50;;;8.48;;
49396;SDS011;35615;41.410;2.194;2023-08-21T05:03:05;23.90;;;8.50;;
49396;SDS011;35615;41.410;2.194;2023-08-21T05:05:33;23.13;;;8.00;;
49396;SDS011;35615;41.410;2.194;2023-08-21T05:08:00;21.52;;;8.18;;
49396;SDS011;35615;41.410;2.194;2023-08-21T05:10:28;18.17;;;7.75;;
49396;SDS011;35615;41.410;2.194;2023-08-21T05:12:56;24.38;;;8.73;;
49396;SDS011;35615;41.410;2.194;2023-08-21T05:15:24;20.52;;;8.40;;
49396;SDS011;35615;41.410;2.194;2023-08-21T05:17:51;20.48;;;7.75;;
49396;SDS011;35615;41.410;2.194;2023-08-21T05:20:20;22.40;;;8.25;;
49396;SDS011;35615;41.410;2.194;2023-08-21T05:22:47;13.88;;;8.57;;
49396;SDS011;35615;41.410;2.194;2023-08-21T05:25:14;18.27;;;8.27;;
49396;SDS011;35615;41.410;2.194;2023-08-21T05:27:42;18.45;;;8.10;;
49396;SDS011;35615;41.410;2.194;2023-08-21T05:30:09;22.45;;;8.45;;
49396;SDS011;35615;41.410;2.194;2023-08-21T05:32:39;25.90;;;7.68;;
49396;SDS011;35615;41.410;2.194;2023-08-21T05:35:06;23.23;;;8.98;;
49396;SDS011;35615;41.410;2.194;2023-08-21T05:37:35;13.77;;;7.95;;
49396;SDS011;35615;41.410;2.194;2023-08-21T05:40:03;23.98;;;8.68;;
49396;SDS011;35615;41.410;2.194;2023-08-21T05:42:32;21.95;;;8.68;;
49396;SDS011;35615;41.410;2.194;2023-08-21T05:45:00;17.95;;;7.60;;
49396;SDS011;35615;41.410;2.194;2023-08-21T05:47:32;26.90;;;8.85;;
49396;SDS011;35615;41.410;2.194;2023-08-21T05:50:00;20.38;;;9.73;;
49396;SDS011;35615;41.410;2.194;2023-08-21T05:52:27;21.85;;;8.68;;
49396;SDS011;35615;41.410;2.194;2023-08-21T05:54:54;24.50;;;10.30;;
49396;SDS011;35615;41.410;2.194;2023-08-21T05:57:21;19.75;;;8.80;;
49396;SDS011;35615;41.410;2.194;2023-08-21T05:59:49;21.13;;;10.05;;
49396;SDS011;35615;41.410;2.194;2023-08-21T06:02:17;22.75;;;8.90;;
49396;SDS011;35615;41.410;2.194;2023-08-21T06:04:45;17.00;;;8.80;;
49396;SDS011;35615;41.410;2.194;2023-08-21T06:07:12;31.88;;;9.35;;
49396;SDS011;35615;41.410;2.194;2023-08-21T06:09:39;15.48;;;8.38;;
49396;SDS011;35615;41.410;2.194;2023-08-21T06:12:08;19.23;;;10.35;;
49396;SDS011;35615;41.410;2.194;2023-08-21T06:14:37;18.95;;;8.60;;
49396;SDS011;35615;41.410;2.194;2023-08-21T06:17:05;20.42;;;8.57;;
49396;SDS011;35615;41.410;2.194;2023-08-21T06:19:33;27.35;;;9.98;;
49396;SDS011;35615;41.410;2.194;2023-08-21T06:22:00;20.85;;;8.65;;
49396;SDS011;35615;41.410;2.194;2023-08-21T06:24:28;26.65;;;9.13;;
49396;SDS011;35615;41.410;2.194;2023-08-21T06:27:00;28.73;;;9.48;;
49396;SDS011;35615;41.410;2.194;2023-08-21T06:29:31;27.42;;;9.45;;
49396;SDS011;35615;41.410;2.194;2023-08-21T06:31:59;17.63;;;9.13;;
49396;SDS011;35615;41.410;2.194;2023-08-21T06:34:26;15.45;;;8.98;;
49396;SDS011;35615;41.410;2.194;2023-08-21T06:36:54;20.13;;;10.32;;
49396;SDS011;35615;41.410;2.194;2023-08-21T06:39:21;20.25;;;8.90;;
49396;SDS011;35615;41.410;2.194;2023-08-21T06:41:49;28.25;;;9.95;;
49396;SDS011;35615;41.410;2.194;2023-08-21T06:44:18;27.33;;;10.30;;
49396;SDS011;35615;41.410;2.194;2023-08-21T06:46:45;24.98;;;9.88;;
49396;SDS011;35615;41.410;2.194;2023-08-21T06:49:13;23.15;;;9.77;;
49396;SDS011;35615;41.410;2.194;2023-08-21T06:51:40;31.25;;;9.27;;
49396;SDS011;35615;41.410;2.194;2023-08-21T06:54:07;40.33;;;10.20;;
49396;SDS011;35615;41.410;2.194;2023-08-21T06:56:34;31.60;;;9.85;;
49396;SDS011;35615;41.410;2.194;2023-08-21T06:59:01;20.80;;;10.00;;
49396;SDS011;35615;41.410;2.194;2023-08-21T07:01:28;21.13;;;9.38;;
49396;SDS011;35615;41.410;2.194;2023-08-21T07:03:56;30.88;;;9.73;;
49396;SDS011;35615;41.410;2.194;2023-08-21T07:06:23;24.35;;;10.57;;
49396;SDS011;35615;41.410;2.194;2023-08-21T07:08:51;37.65;;;10.40;;
49396;SDS011;35615;41.410;2.194;2023-08-21T07:11:20;27.80;;;10.38;;
49396;SDS011;35615;41.410;2.194;2023-08-21T07:13:47;25.20;;;9.45;;
49396;SDS011;35615;41.410;2.194;2023-08-21T07:16:14;38.30;;;10.25;;
49396;SDS011;35615;41.410;2.194;2023-08-21T07:18:42;24.70;;;10.20;;
49396;SDS011;35615;41.410;2.194;2023-08-21T07:21:09;36.75;;;10.35;;
49396;SDS011;35615;41.410;2.194;2023-08-21T07:23:56;42.20;;;10.68;;
49396;SDS011;35615;41.410;2.194;2023-08-21T07:26:24;25.83;;;9.98;;
49396;SDS011;35615;41.410;2.194;2023-08-21T07:28:51;25.20;;;10.02;;
49396;SDS011;35615;41.410;2.194;2023-08-21T07:31:19;22.08;;;10.48;;
49396;SDS011;35615;41.410;2.194;2023-08-21T07:33:47;20.60;;;9.68;;
49396;SDS011;35615;41.410;2.194;2023-08-21T07:36:14;23.08;;;9.98;;
49396;SDS011;35615;41.410;2.194;2023-08-21T07:38:44;28.83;;;11.23;;
49396;SDS011;35615;41.410;2.194;2023-08-21T07:41:11;23.02;;;11.07;;
49396;SDS011;35615;41.410;2.194;2023-08-21T07:43:40;24.40;;;10.07;;
49396;SDS011;35615;41.410;2.194;2023-08-21T07:46:10;21.17;;;10.70;;
49396;SDS011;35615;41.410;2.194;2023-08-21T07:48:40;35.15;;;11.68;;
49396;SDS011;35615;41.410;2.194;2023-08-21T07:51:07;18.27;;;10.25;;
49396;SDS011;35615;41.410;2.194;2023-08-21T07:53:35;33.85;;;10.23;;
49396;SDS011;35615;41.410;2.194;2023-08-21T07:56:03;37.85;;;9.77;;
49396;SDS011;35615;41.410;2.194;2023-08-21T07:58:30;27.33;;;9.55;;
49396;SDS011;35615;41.410;2.194;2023-08-21T08:00:58;35.60;;;11.13;;
49396;SDS011;35615;41.410;2.194;2023-08-21T08:03:26;25.00;;;9.00;;
49396;SDS011;35615;41.410;2.194;2023-08-21T08:05:53;33.60;;;10.45;;
49396;SDS011;35615;41.410;2.194;2023-08-21T08:08:21;29.88;;;9.88;;
49396;SDS011;35615;41.410;2.194;2023-08-21T08:10:49;24.27;;;9.90;;
49396;SDS011;35615;41.410;2.194;2023-08-21T08:13:16;27.38;;;8.90;;
49396;SDS011;35615;41.410;2.194;2023-08-21T08:15:43;17.85;;;9.32;;
49396;SDS011;35615;41.410;2.194;2023-08-21T08:18:11;20.50;;;9.38;;
49396;SDS011;35615;41.410;2.194;2023-08-21T08:20:39;21.63;;;9.55;;
49396;SDS011;35615;41.410;2.194;2023-08-21T08:23:07;23.85;;;9.73;;
49396;SDS011;35615;41.410;2.194;2023-08-21T08:25:35;19.45;;;8.85;;
49396;SDS011;35615;41.410;2.194;2023-08-21T08:28:02;16.85;;;8.57;;
49396;SDS011;35615;41.410;2.194;2023-08-21T08:30:29;28.45;;;9.63;;
49396;SDS011;35615;41.410;2.194;2023-08-21T08:32:58;22.92;;;9.90;;
49396;SDS011;35615;41.410;2.194;2023-08-21T08:35:25;19.23;;;9.68;;
49396;SDS011;35615;41.410;2.194;2023-08-21T08:37:52;21.13;;;9.82;;
49396;SDS011;35615;41.410;2.194;2023-08-21T08:40:19;24.80;;;9.75;;
49396;SDS011;35615;41.410;2.194;2023-08-21T08:42:47;24.00;;;9.18;;
49396;SDS011;35615;41.410;2.194;2023-08-21T08:45:14;33.85;;;9.18;;
49396;SDS011;35615;41.410;2.194;2023-08-21T08:47:41;31.73;;;11.23;;
49396;SDS011;35615;41.410;2.194;2023-08-21T08:50:09;18.67;;;9.27;;
49396;SDS011;35615;41.410;2.194;2023-08-21T08:52:37;33.65;;;9.82;;
49396;SDS011;35615;41.410;2.194;2023-08-21T08:55:07;16.92;;;9.27;;
49396;SDS011;35615;41.410;2.194;2023-08-21T08:57:35;18.15;;;9.25;;
49396;SDS011;35615;41.410;2.194;2023-08-21T09:00:02;21.10;;;9.48;;
49396;SDS011;35615;41.410;2.194;2023-08-21T09:02:31;19.00;;;10.25;;
49396;SDS011;35615;41.410;2.194;2023-08-21T09:04:59;17.60;;;10.00;;
49396;SDS011;35615;41.410;2.194;2023-08-21T09:07:26;19.45;;;9.43;;
49396;SDS011;35615;41.410;2.194;2023-08-21T09:09:53;16.92;;;9.70;;
49396;SDS011;35615;41.410;2.194;2023-08-21T09:12:21;24.58;;;8.95;;
49396;SDS011;35615;41.410;2.194;2023-08-21T09:14:48;18.55;;;8.93;;
49396;SDS011;35615;41.410;2.194;2023-08-21T09:17:17;20.73;;;10.13;;
49396;SDS011;35615;41.410;2.194;2023-08-21T09:19:45;17.52;;;9.20;;
49396;SDS011;35615;41.410;2.194;2023-08-21T09:22:13;21.25;;;9.95;;
49396;SDS011;35615;41.410;2.194;2023-08-21T09:24:59;20.27;;;10.57;;
49396;SDS011;35615;41.410;2.194;2023-08-21T09:27:34;18.75;;;9.50;;
49396;SDS011;35615;41.410;2.194;2023-08-21T09:30:05;12.65;;;9.05;;
49396;SDS011;35615;41.410;2.194;2023-08-21T09:32:52;16.33;;;9.43;;
49396;SDS011;35615;41.410;2.194;2023-08-21T09:35:20;14.13;;;9.98;;
49396;SDS011;35615;41.410;2.194;2023-08-21T09:37:48;18.25;;;9.25;;
49396;SDS011;35615;41.410;2.194;2023-08-21T09:40:16;15.18;;;8.63;;
49396;SDS011;35615;41.410;2.194;2023-08-21T09:42:43;18.95;;;9.40;;
49396;SDS011;35615;41.410;2.194;2023-08-21T09:48:38;16.85;;;9.02;;
49396;SDS011;35615;41.410;2.194;2023-08-21T09:51:11;16.85;;;8.90;;
49396;SDS011;35615;41.410;2.194;2023-08-21T09:53:41;13.15;;;8.98;;
49396;SDS011;35615;41.410;2.194;2023-08-21T09:56:09;19.55;;;8.77;;
49396;SDS011;35615;41.410;2.194;2023-08-21T09:58:38;19.65;;;9.60;;
49396;SDS011;35615;41.410;2.194;2023-08-21T10:01:07;20.20;;;9.25;;
49396;SDS011;35615;41.410;2.194;2023-08-21T10:03:44;20.52;;;9.77;;
49396;SDS011;35615;41.410;2.194;2023-08-21T10:06:18;22.77;;;8.15;;
49396;SDS011;35615;41.410;2.194;2023-08-21T10:08:59;21.30;;;7.90;;
49396;SDS011;35615;41.410;2.194;2023-08-21T10:11:31;15.27;;;8.48;;
49396;SDS011;35615;41.410;2.194;2023-08-21T10:13:59;19.73;;;11.82;;
49396;SDS011;35615;41.410;2.194;2023-08-21T10:16:26;18.85;;;7.70;;
49396;SDS011;35615;41.410;2.194;2023-08-21T10:18:54;22.58;;;9.00;;
49396;SDS011;35615;41.410;2.194;2023-08-21T10:21:23;26.50;;;8.35;;
49396;SDS011;35615;41.410;2.194;2023-08-21T10:23:56;17.25;;;7.95;;
49396;SDS011;35615;41.410;2.194;2023-08-21T10:26:31;13.43;;;7.63;;
49396;SDS011;35615;41.410;2.194;2023-08-21T10:29:16;15.00;;;7.03;;
49396;SDS011;35615;41.410;2.194;2023-08-21T10:31:43;13.23;;;7.68;;
49396;SDS011;35615;41.410;2.194;2023-08-21T10:34:11;16.65;;;7.78;;
49396;SDS011;35615;41.410;2.194;2023-08-21T10:39:15;18.42;;;8.15;;
49396;SDS011;35615;41.410;2.194;2023-08-21T10:41:55;18.73;;;10.30;;
49396;SDS011;35615;41.410;2.194;2023-08-21T10:44:50;22.80;;;10.98;;
49396;SDS011;35615;41.410;2.194;2023-08-21T10:47:22;17.23;;;9.98;;
49396;SDS011;35615;41.410;2.194;2023-08-21T10:49:58;14.35;;;8.48;;
49396;SDS011;35615;41.410;2.194;2023-08-21T10:52:36;15.85;;;8.90;;
49396;SDS011;35615;41.410;2.194;2023-08-21T10:55:12;18.23;;;8.20;;
49396;SDS011;35615;41.410;2.194;2023-08-21T10:57:45;17.95;;;8.80;;
49396;SDS011;35615;41.410;2.194;2023-08-21T11:00:16;19.38;;;11.02;;
49396;SDS011;35615;41.410;2.194;2023-08-21T11:02:45;14.52;;;7.70;;
49396;SDS011;35615;41.410;2.194;2023-08-21T11:05:15;15.30;;;7.97;;
49396;SDS011;35615;41.410;2.194;2023-08-21T11:07:46;17.98;;;8.85;;
49396;SDS011;35615;41.410;2.194;2023-08-21T11:10:18;16.08;;;8.43;;
49396;SDS011;35615;41.410;2.194;2023-08-21T11:12:55;16.08;;;8.50;;
49396;SDS011;35615;41.410;2.194;2023-08-21T11:15:24;13.88;;;8.77;;
49396;SDS011;35615;41.410;2.194;2023-08-21T11:17:59;16.33;;;8.27;;
49396;SDS011;35615;41.410;2.194;2023-08-21T11:20:31;18.55;;;7.70;;
49396;SDS011;35615;41.410;2.194;2023-08-21T11:23:00;22.17;;;7.87;;
49396;SDS011;35615;41.410;2.194;2023-08-21T11:25:34;18.77;;;8.45;;
49396;SDS011;35615;41.410;2.194;2023-08-21T11:28:05;11.55;;;7.60;;
49396;SDS011;35615;41.410;2.194;2023-08-21T11:30:32;12.65;;;7.20;;
49396;SDS011;35615;41.410;2.194;2023-08-21T11:33:12;13.88;;;7.78;;
49396;SDS011;35615;41.410;2.194;2023-08-21T11:35:40;11.55;;;7.18;;
49396;SDS011;35615;41.410;2.194;2023-08-21T11:38:18;24.02;;;8.57;;
49396;SDS011;35615;41.410;2.194;2023-08-21T11:43:39;22.13;;;10.80;;
49396;SDS011;35615;41.410;2.194;2023-08-21T11:46:09;16.08;;;7.90;;
49396;SDS011;35615;41.410;2.194;2023-08-21T11:48:37;24.73;;;8.50;;
49396;SDS011;35615;41.410;2.194;2023-08-21T11:51:07;20.25;;;8.60;;
49396;SDS011;35615;41.410;2.194;2023-08-21T11:53:36;17.98;;;9.23;;
49396;SDS011;35615;41.410;2.194;2023-08-21T11:56:09;17.80;;;8.98;;
49396;SDS011;35615;41.410;2.194;2023-08-21T11:58:41;16.80;;;9.77;;
49396;SDS011;35615;41.410;2.194;2023-08-21T12:01:09;23.20;;;10.02;;
49396;SDS011;35615;41.410;2.194;2023-08-21T12:03:38;15.35;;;7.25;;
49396;SDS011;35615;41.410;2.194;2023-08-21T12:06:10;10.55;;;7.38;;
49396;SDS011;35615;41.410;2.194;2023-08-21T12:08:38;11.23;;;6.50;;
49396;SDS011;35615;41.410;2.194;2023-08-21T12:11:06;9.52;;;6.78;;
49396;SDS011;35615;41.410;2.194;2023-08-21T12:13:34;13.05;;;6.65;;
49396;SDS011;35615;41.410;2.194;2023-08-21T12:16:02;10.68;;;6.93;;
49396;SDS011;35615;41.410;2.194;2023-08-21T12:18:30;11.85;;;5.70;;
49396;SDS011;35615;41.410;2.194;2023-08-21T12:20:58;12.18;;;6.25;;
49396;SDS011;35615;41.410;2.194;2023-08-21T12:23:26;12.02;;;6.30;;
49396;SDS011;35615;41.410;2.194;2023-08-21T12:25:56;10.45;;;5.65;;
49396;SDS011;35615;41.410;2.194;2023-08-21T12:28:23;12.80;;;5.95;;
49396;SDS011;35615;41.410;2.194;2023-08-21T12:30:50;6.80;;;5.53;;
49396;SDS011;35615;41.410;2.194;2023-08-21T12:33:17;14.20;;;7.70;;
49396;SDS011;35615;41.410;2.194;2023-08-21T12:35:50;20.67;;;7.32;;
49396;SDS011;35615;41.410;2.194;2023-08-21T12:38:17;12.73;;;7.03;;
49396;SDS011;35615;41.410;2.194;2023-08-21T12:40:44;15.05;;;6.90;;
49396;SDS011;35615;41.410;2.194;2023-08-21T12:43:12;13.93;;;6.63;;
49396;SDS011;35615;41.410;2.194;2023-08-21T12:45:39;10.93;;;6.82;;
49396;SDS011;35615;41.410;2.194;2023-08-21T12:48:08;10.82;;;7.22;;
49396;SDS011;35615;41.410;2.194;2023-08-21T12:50:35;16.75;;;7.35;;
49396;SDS011;35615;41.410;2.194;2023-08-21T12:53:02;15.00;;;7.30;;
49396;SDS011;35615;41.410;2.194;2023-08-21T12:55:29;12.13;;;7.70;;
49396;SDS011;35615;41.410;2.194;2023-08-21T12:57:57;12.73;;;7.13;;
49396;SDS011;35615;41.410;2.194;2023-08-21T13:00:24;17.15;;;9.23;;
49396;SDS011;35615;41.410;2.194;2023-08-21T13:02:52;15.55;;;9.32;;
49396;SDS011;35615;41.410;2.194;2023-08-21T13:05:20;14.43;;;7.97;;
49396;SDS011;35615;41.410;2.194;2023-08-21T13:07:47;10.10;;;7.45;;
49396;SDS011;35615;41.410;2.194;2023-08-21T13:10:14;12.02;;;7.13;;
49396;SDS011;35615;41.410;2.194;2023-08-21T13:12:42;14.65;;;7.55;;
49396;SDS011;35615;41.410;2.194;2023-08-21T13:15:12;12.05;;;8.07;;
49396;SDS011;35615;41.410;2.194;2023-08-21T13:17:48;10.60;;;7.53;;
49396;SDS011;35615;41.410;2.194;2023-08-21T13:20:15;19.65;;;9.30;;
49396;SDS011;35615;41.410;2.194;2023-08-21T13:22:46;13.30;;;8.05;;
49396;SDS011;35615;41.410;2.194;2023-08-21T13:27:42;13.68;;;7.97;;
49396;SDS011;35615;41.410;2.194;2023-08-21T13:30:12;15.77;;;10.40;;
49396;SDS011;35615;41.410;2.194;2023-08-21T13:32:41;14.30;;;9.27;;
49396;SDS011;35615;41.410;2.194;2023-08-21T13:35:08;18.90;;;8.20;;
49396;SDS011;35615;41.410;2.194;2023-08-21T13:37:36;18.13;;;9.45;;
49396;SDS011;35615;41.410;2.194;2023-08-21T13:40:06;21.30;;;8.43;;
49396;SDS011;35615;41.410;2.194;2023-08-21T13:42:42;15.73;;;7.97;;
49396;SDS011;35615;41.410;2.194;2023-08-21T13:45:12;16.33;;;8.05;;
49396;SDS011;35615;41.410;2.194;2023-08-21T13:47:44;17.60;;;8.90;;
49396;SDS011;35615;41.410;2.194;2023-08-21T13:50:23;11.98;;;8.00;;
49396;SDS011;35615;41.410;2.194;2023-08-21T13:52:50;11.50;;;7.90;;
49396;SDS011;35615;41.410;2.194;2023-08-21T13:55:18;11.85;;;7.85;;
49396;SDS011;35615;41.410;2.194;2023-08-21T13:57:48;16.75;;;7.50;;
49396;SDS011;35615;41.410;2.194;2023-08-21T14:00:15;9.75;;;7.45;;
49396;SDS011;35615;41.410;2.194;2023-08-21T14:02:44;11.18;;;6.93;;
49396;SDS011;35615;41.410;2.194;2023-08-21T14:05:12;14.00;;;7.95;;
49396;SDS011;35615;41.410;2.194;2023-08-21T14:07:42;16.38;;;6.95;;
49396;SDS011;35615;41.410;2.194;2023-08-21T14:10:11;15.82;;;7.00;;
49396;SDS011;35615;41.410;2.194;2023-08-21T14:12:43;12.57;;;7.43;;
49396;SDS011;35615;41.410;2.194;2023-08-21T14:15:11;16.40;;;7.60;;
49396;SDS011;35615;41.410;2.194;2023-08-21T14:17:38;12.90;;;7.70;;
49396;SDS011;35615;41.410;2.194;2023-08-21T14:20:06;17.38;;;7.00;;
49396;SDS011;35615;41.410;2.194;2023-08-21T14:22:37;12.98;;;7.93;;
49396;SDS011;35615;41.410;2.194;2023-08-21T14:25:05;15.00;;;7.75;;
49396;SDS011;35615;41.410;2.194;2023-08-21T14:27:35;12.65;;;8.40;;
49396;SDS011;35615;41.410;2.194;2023-08-21T14:30:03;12.65;;;7.45;;
49396;SDS011;35615;41.410;2.194;2023-08-21T14:32:32;20.27;;;7.45;;
49396;SDS011;35615;41.410;2.194;2023-08-21T14:35:03;15.95;;;8.50;;
49396;SDS011;35615;41.410;2.194;2023-08-21T14:37:31;14.77;;;8.07;;
49396;SDS011;35615;41.410;2.194;2023-08-21T14:39:59;16.27;;;7.72;;
49396;SDS011;35615;41.410;2.194;2023-08-21T14:42:26;8.45;;;7.10;;
49396;SDS011;35615;41.410;2.194;2023-08-21T14:44:53;17.00;;;7.40;;
49396;SDS011;35615;41.410;2.194;2023-08-21T14:47:20;14.38;;;7.72;;
49396;SDS011;35615;41.410;2.194;2023-08-21T14:49:48;19.50;;;8.02;;
49396;SDS011;35615;41.410;2.194;2023-08-21T14:52:16;7.57;;;5.80;;
49396;SDS011;35615;41.410;2.194;2023-08-21T14:54:44;12.65;;;6.13;;
49396;SDS011;35615;41.410;2.194;2023-08-21T14:57:11;12.65;;;6.68;;
49396;SDS011;35615;41.410;2.194;2023-08-21T14:59:38;14.05;;;8.15;;